Time;durP1;ratioP1;P1;durP2;ratioP2;P2;SDS_P1;SDS_P2;PMS_P1;PMS_P2;Temp;Humidity;BMP_temperature;BMP_pressure;BME280_temperature;BME280_humidity;BME280_pressure;Samples;Min_cycle;Max_cycle;Signal;HPM_P1;HPM_P2
2021/07/29 00:01:17;;;;;;;0.00;0.00;;;16.70;99.90;;;;;;5054444;28;20121;-86
2021/07/29 00:04:04;;;;;;;0.00;0.00;;;16.70;99.90;;;;;;5056045;28;20125;-86
2021/07/29 00:06:52;;;;;;;0.00;0.00;;;16.70;99.90;;;;;;5055795;28;20051;-86
2021/07/29 00:09:44;;;;;;;0.00;0.00;;;16.70;99.90;;;;;;5056606;28;20119;-86
2021/07/29 00:12:32;;;;;;;0.00;0.00;;;16.80;99.90;;;;;;5052481;28;20600;-88
2021/07/29 00:15:19;;;;;;;0.00;0.00;;;16.70;99.90;;;;;;5052150;28;20513;-87
2021/07/29 00:20:53;;;;;;;0.00;0.00;;;16.90;99.90;;;;;;5071715;28;20171;-87
2021/07/29 00:23:40;;;;;;;0.00;0.00;;;16.90;99.90;;;;;;5057852;28;20046;-86
2021/07/29 00:26:29;;;;;;;0.00;0.00;;;16.90;99.90;;;;;;5056682;28;20044;-86
2021/07/29 00:29:16;;;;;;;0.00;0.00;;;16.90;99.90;;;;;;5054240;28;20489;-86
2021/07/29 00:32:04;;;;;;;0.00;0.00;;;17.00;99.90;;;;;;5045777;28;20045;-86
2021/07/29 00:34:51;;;;;;;0.00;0.00;;;17.00;99.90;;;;;;5061255;28;20055;-87
2021/07/29 00:37:38;;;;;;;0.00;0.00;;;17.00;99.90;;;;;;5057329;28;20125;-87
2021/07/29 00:40:25;;;;;;;0.00;0.00;;;17.00;99.90;;;;;;5053258;28;20174;-86
2021/07/29 00:43:15;;;;;;;0.00;0.00;;;17.00;99.90;;;;;;5062273;28;20040;-86
2021/07/29 00:46:02;;;;;;;0.00;0.00;;;17.00;99.90;;;;;;5057168;28;20515;-86
2021/07/29 00:48:49;;;;;;;0.00;0.00;;;16.90;99.90;;;;;;5059627;28;20047;-87
2021/07/29 00:51:36;;;;;;;0.00;0.00;;;16.90;99.90;;;;;;5059141;28;20047;-88
2021/07/29 00:54:28;;;;;;;0.00;0.00;;;16.90;99.90;;;;;;5069244;28;20048;-86
2021/07/29 00:57:16;;;;;;;0.00;0.00;;;16.80;99.90;;;;;;5059825;28;20241;-86
2021/07/29 01:00:06;;;;;;;0.00;0.00;;;16.80;99.90;;;;;;5059118;28;20126;-88
2021/07/29 01:02:53;;;;;;;;;;;16.70;99.90;;;;;;5052454;28;20111;-87
2021/07/29 01:05:41;;;;;;;0.00;0.00;;;16.70;99.90;;;;;;5058449;28;20015;-88
2021/07/29 01:08:28;;;;;;;0.00;0.00;;;16.60;99.90;;;;;;5058807;28;20394;-86
2021/07/29 01:11:15;;;;;;;0.00;0.00;;;16.50;99.90;;;;;;5052408;28;20057;-86
2021/07/29 01:14:03;;;;;;;0.00;0.00;;;16.40;99.90;;;;;;5055155;28;20093;-87
2021/07/29 01:16:51;;;;;;;0.00;0.00;;;16.30;99.90;;;;;;5058698;28;20056;-85
2021/07/29 01:19:38;;;;;;;0.00;0.00;;;16.20;99.90;;;;;;5059153;28;20044;-86
2021/07/29 01:22:34;;;;;;;0.00;0.00;;;16.10;99.90;;;;;;5059909;28;20050;-86
2021/07/29 01:25:21;;;;;;;0.00;0.00;;;16.20;99.90;;;;;;5055776;28;20059;-85
2021/07/29 01:28:08;;;;;;;0.00;0.00;;;16.20;99.90;;;;;;5053770;28;20055;-85
2021/07/29 01:30:55;;;;;;;0.00;0.00;;;16.20;99.90;;;;;;5054925;28;20409;-85
2021/07/29 01:33:43;;;;;;;0.00;0.00;;;16.30;99.90;;;;;;5054431;28;20048;-86
2021/07/29 01:36:30;;;;;;;0.00;0.00;;;17.80;99.90;;;;;;5065609;28;20115;-85
2021/07/29 01:39:19;;;;;;;0.00;0.00;;;16.20;99.90;;;;;;5057295;28;20123;-85
2021/07/29 01:42:06;;;;;;;0.00;0.00;;;16.20;99.90;;;;;;5055667;28;20125;-85
2021/07/29 01:44:53;;;;;;;0.00;0.00;;;16.10;99.90;;;;;;5054379;28;20072;-83
2021/07/29 01:47:40;;;;;;;0.00;0.00;;;16.10;99.90;;;;;;5056358;28;20052;-85
2021/07/29 01:50:27;;;;;;;0.00;0.00;;;16.10;99.90;;;;;;5057715;28;20080;-85
2021/07/29 01:53:14;;;;;;;0.00;0.00;;;16.10;99.90;;;;;;5055512;28;20059;-84
2021/07/29 01:56:07;;;;;;;0.00;0.00;;;16.10;99.90;;;;;;5057154;28;20472;-85
2021/07/29 01:58:54;;;;;;;0.00;0.00;;;16.00;99.90;;;;;;5054029;28;20037;-86
2021/07/29 02:01:41;;;;;;;0.00;0.00;;;16.00;99.90;;;;;;5052390;28;20120;-85
2021/07/29 02:04:28;;;;;;;0.00;0.00;;;16.00;99.90;;;;;;5057066;28;20137;-87
2021/07/29 02:07:15;;;;;;;0.00;0.00;;;16.00;99.90;;;;;;5044909;28;20055;-86
2021/07/29 02:10:03;;;;;;;0.00;0.00;;;16.00;99.90;;;;;;5058133;28;20044;-86
2021/07/29 02:12:54;;;;;;;0.00;0.00;;;16.00;99.90;;;;;;5057841;28;20085;-87
2021/07/29 02:15:41;;;;;;;0.00;0.00;;;15.90;99.90;;;;;;5053952;28;20391;-85
2021/07/29 02:18:28;;;;;;;0.00;0.00;;;16.00;99.90;;;;;;5054980;28;20170;-87
2021/07/29 02:21:15;;;;;;;0.00;0.00;;;16.00;99.90;;;;;;5058286;28;20529;-87
2021/07/29 02:24:03;;;;;;;0.00;0.00;;;15.90;99.90;;;;;;5039314;28;20079;-88
2021/07/29 02:26:50;;;;;;;0.00;0.00;;;15.90;99.90;;;;;;5058551;28;20489;-86
2021/07/29 02:29:39;;;;;;;0.00;0.00;;;15.80;99.90;;;;;;5066017;28;20131;-87
2021/07/29 02:32:27;;;;;;;0.00;0.00;;;15.80;99.90;;;;;;5051883;28;20033;-89
2021/07/29 02:35:14;;;;;;;0.00;0.00;;;15.70;99.90;;;;;;5055177;28;20048;-88
2021/07/29 02:38:01;;;;;;;0.00;0.00;;;15.70;99.90;;;;;;5055688;28;20494;-89
2021/07/29 02:40:49;;;;;;;0.00;0.00;;;15.80;99.90;;;;;;5053292;28;20166;-89
2021/07/29 02:43:36;;;;;;;0.00;0.00;;;15.70;99.90;;;;;;5055291;28;20044;-87
2021/07/29 02:46:24;;;;;;;0.00;0.00;;;15.80;99.90;;;;;;5052412;28;20531;-86
2021/07/29 02:49:11;;;;;;;0.00;0.00;;;15.80;99.90;;;;;;5049774;28;20060;-87
2021/07/29 02:51:59;;;;;;;0.00;0.00;;;;;;;;;;5057300;28;20169;-87
2021/07/29 02:54:46;;;;;;;0.00;0.00;;;15.80;99.90;;;;;;5057204;28;20048;-86
2021/07/29 02:57:35;;;;;;;0.00;0.00;;;15.80;99.90;;;;;;5055225;28;20888;-86
2021/07/29 03:00:22;;;;;;;0.00;0.00;;;15.80;99.90;;;;;;5057356;28;20558;-88
2021/07/29 03:03:10;;;;;;;0.00;0.00;;;15.80;99.90;;;;;;5054701;28;20047;-87
2021/07/29 03:05:58;;;;;;;0.00;0.00;;;15.80;99.90;;;;;;5051553;28;20133;-88
2021/07/29 03:08:45;;;;;;;0.00;0.00;;;15.80;99.90;;;;;;5055156;28;20041;-88
2021/07/29 03:11:32;;;;;;;0.00;0.00;;;15.80;99.90;;;;;;5054125;28;20382;-87
2021/07/29 03:14:19;;;;;;;0.00;0.00;;;15.90;99.90;;;;;;5061156;28;20127;-88
2021/07/29 03:17:06;;;;;;;0.00;0.00;;;15.90;99.90;;;;;;5048679;28;20049;-87
2021/07/29 03:19:55;;;;;;;0.00;0.00;;;15.90;99.90;;;;;;5056329;28;20133;-87
2021/07/29 03:22:42;;;;;;;0.00;0.00;;;15.90;99.90;;;;;;5048563;28;20033;-89
2021/07/29 03:25:29;;;;;;;0.00;0.00;;;15.90;99.90;;;;;;5053609;28;20553;-87
2021/07/29 03:28:16;;;;;;;0.00;0.00;;;15.80;99.90;;;;;;5052698;28;20135;-89
2021/07/29 03:31:03;;;;;;;0.00;0.00;;;15.80;99.90;;;;;;5056828;28;20506;-88
2021/07/29 03:33:50;;;;;;;0.00;0.00;;;15.80;99.90;;;;;;5051750;28;20131;-87
2021/07/29 03:36:39;;;;;;;0.00;0.00;;;15.80;99.90;;;;;;5055293;28;20131;-89
2021/07/29 03:39:26;;;;;;;0.00;0.00;;;15.90;99.90;;;;;;5054850;28;20038;-87
2021/07/29 03:42:13;;;;;;;0.00;0.00;;;15.90;99.90;;;;;;5058114;28;20036;-88
2021/07/29 03:45:01;;;;;;;0.00;0.00;;;15.90;99.90;;;;;;5053116;28;20105;-89
2021/07/29 03:47:48;;;;;;;0.00;0.00;;;15.90;99.90;;;;;;5056644;28;20041;-85
2021/07/29 03:50:37;;;;;;;0.00;0.00;;;15.90;99.90;;;;;;5052481;28;20535;-88
2021/07/29 03:53:26;;;;;;;0.00;0.00;;;15.90;99.90;;;;;;5050736;28;20045;-89
2021/07/29 03:56:13;;;;;;;0.00;0.00;;;15.90;99.90;;;;;;5055040;28;20044;-87
2021/07/29 03:59:00;;;;;;;0.00;0.00;;;15.80;99.90;;;;;;5055896;28;20123;-88
2021/07/29 04:01:47;;;;;;;0.00;0.00;;;15.90;99.90;;;;;;5058034;28;20124;-88
2021/07/29 04:04:34;;;;;;;0.00;0.00;;;15.80;99.90;;;;;;5051302;28;20047;-88
2021/07/29 04:07:21;;;;;;;0.00;0.00;;;15.90;99.90;;;;;;5056041;28;20059;-86
2021/07/29 04:10:11;;;;;;;0.00;0.00;;;15.90;99.90;;;;;;5053132;28;20048;-88
2021/07/29 04:12:58;;;;;;;0.00;0.00;;;15.90;99.90;;;;;;5045262;28;20044;-88
2021/07/29 04:15:45;;;;;;;0.00;0.00;;;15.90;99.90;;;;;;5064948;28;20041;-89
2021/07/29 04:18:32;;;;;;;0.00;0.00;;;15.90;99.90;;;;;;5051329;28;20137;-89
2021/07/29 04:21:20;;;;;;;0.00;0.00;;;15.90;99.90;;;;;;5070843;28;20040;-90
2021/07/29 04:24:07;;;;;;;0.00;0.00;;;15.90;99.90;;;;;;5051642;28;20044;-90
2021/07/29 04:26:55;;;;;;;0.00;0.00;;;16.00;99.90;;;;;;5057656;28;20043;-91
2021/07/29 04:29:43;;;;;;;0.00;0.00;;;15.90;99.90;;;;;;5056084;28;20127;-86
2021/07/29 04:32:35;;;;;;;0.00;0.00;;;16.00;99.90;;;;;;5059406;28;20047;-92
2021/07/29 04:35:22;;;;;;;0.00;0.00;;;16.00;99.90;;;;;;5056521;28;20047;-92
2021/07/29 04:38:09;;;;;;;0.00;0.00;;;16.00;99.90;;;;;;5055537;28;20394;-91
2021/07/29 04:41:02;;;;;;;0.00;0.00;;;16.00;99.90;;;;;;5057382;28;20143;-92
2021/07/29 04:43:52;;;;;;;0.00;0.00;;;16.00;99.90;;;;;;5060760;28;20512;-88
2021/07/29 04:46:41;;;;;;;0.00;0.00;;;16.10;99.90;;;;;;5055984;28;20486;-90
2021/07/29 04:49:28;;;;;;;0.00;0.00;;;16.10;99.90;;;;;;5057066;28;20052;-89
2021/07/29 04:52:15;;;;;;;0.00;0.00;;;16.10;99.90;;;;;;5060008;28;20051;-91
2021/07/29 04:55:03;;;;;;;0.00;0.00;;;16.10;99.90;;;;;;5056423;28;20185;-87
2021/07/29 04:57:50;;;;;;;0.00;0.00;;;16.10;99.90;;;;;;5056786;28;20036;-91
2021/07/29 05:00:38;;;;;;;0.00;0.00;;;16.10;99.90;;;;;;5058510;28;20044;-90
2021/07/29 05:03:25;;;;;;;0.00;0.00;;;16.10;99.90;;;;;;5058262;28;20044;-89
2021/07/29 05:06:13;;;;;;;0.00;0.00;;;16.00;99.90;;;;;;5059161;28;20055;-85
2021/07/29 05:09:00;;;;;;;0.00;0.00;;;16.00;99.90;;;;;;5058188;28;20167;-89
2021/07/29 05:11:47;;;;;;;0.00;0.00;;;16.00;99.90;;;;;;5059165;28;20051;-90
2021/07/29 05:14:34;;;;;;;0.00;0.00;;;16.00;99.90;;;;;;5061889;28;20049;-89
2021/07/29 05:17:23;;;;;;;0.00;0.00;;;16.10;99.90;;;;;;5053131;28;20485;-88
2021/07/29 05:20:11;;;;;;;0.00;0.00;;;16.10;99.90;;;;;;5075270;28;20147;-90
2021/07/29 05:22:58;;;;;;;0.00;0.00;;;16.10;99.90;;;;;;5060765;28;20049;-87
2021/07/29 05:25:45;;;;;;;0.00;0.00;;;16.20;99.90;;;;;;5060087;28;20599;-90
2021/07/29 05:28:32;;;;;;;0.00;0.00;;;16.20;99.90;;;;;;5056149;28;20162;-88
2021/07/29 05:31:19;;;;;;;0.00;0.00;;;16.20;99.90;;;;;;5053837;28;20049;-91
2021/07/29 05:34:09;;;;;;;0.00;0.00;;;16.30;99.90;;;;;;5075208;28;20055;-90
2021/07/29 05:36:56;;;;;;;0.00;0.00;;;16.30;99.90;;;;;;5048981;28;20162;-89
2021/07/29 05:39:43;;;;;;;0.00;0.00;;;16.30;99.90;;;;;;5054696;28;20045;-91
2021/07/29 05:42:31;;;;;;;0.00;0.00;;;16.30;99.90;;;;;;5049521;28;20077;-90
2021/07/29 05:45:20;;;;;;;0.00;0.00;;;;;;;;;;5057309;28;20106;-91
2021/07/29 05:48:07;;;;;;;0.00;0.00;;;16.30;99.90;;;;;;5055831;28;20052;-88
2021/07/29 05:50:56;;;;;;;0.00;0.00;;;16.30;99.90;;;;;;5054589;28;20052;-90
2021/07/29 05:53:44;;;;;;;0.00;0.00;;;16.30;99.90;;;;;;5058883;28;20083;-89
2021/07/29 05:56:31;;;;;;;0.00;0.00;;;16.30;99.90;;;;;;5059805;28;20177;-92
2021/07/29 05:59:18;;;;;;;0.00;0.00;;;16.30;99.90;;;;;;5058221;28;20266;-90
2021/07/29 06:02:05;;;;;;;0.00;0.00;;;16.30;99.90;;;;;;5055176;28;20037;-90
2021/07/29 06:04:53;;;;;;;0.00;0.00;;;16.40;99.90;;;;;;5053988;28;20520;-90
2021/07/29 06:07:41;;;;;;;0.00;0.00;;;16.40;99.90;;;;;;5050192;28;20627;-89
2021/07/29 06:10:28;;;;;;;0.00;0.00;;;16.50;99.90;;;;;;5055686;28;20128;-89
2021/07/29 06:13:15;;;;;;;0.00;0.00;;;16.60;99.90;;;;;;5053921;28;20047;-90
2021/07/29 06:16:05;;;;;;;0.00;0.00;;;16.70;99.90;;;;;;5050859;28;20494;-88
2021/07/29 06:19:03;;;;;;;0.00;0.00;;;16.80;99.90;;;;;;5073314;28;20039;-81
2021/07/29 06:21:50;;;;;;;0.00;0.00;;;16.90;99.90;;;;;;5054012;28;20796;-90
2021/07/29 06:24:40;;;;;;;0.00;0.00;;;16.80;99.90;;;;;;5057578;28;20425;-90
2021/07/29 06:27:27;;;;;;;0.00;0.00;;;16.90;99.90;;;;;;5055206;28;20045;-90
2021/07/29 06:30:15;;;;;;;0.00;0.00;;;17.00;99.90;;;;;;5056635;28;20051;-91
2021/07/29 06:33:02;;;;;;;0.00;0.00;;;17.10;99.90;;;;;;5052900;28;20036;-92
2021/07/29 06:35:49;;;;;;;0.00;0.00;;;17.10;99.90;;;;;;5055889;28;20048;-92
2021/07/29 06:38:39;;;;;;;0.00;0.00;;;17.20;99.90;;;;;;5054898;28;20124;-89
2021/07/29 06:41:27;;;;;;;;;;;17.20;99.90;;;;;;5056931;28;20433;-90
2021/07/29 06:44:14;;;;;;;0.00;0.00;;;17.00;99.90;;;;;;5057137;28;20393;-88
2021/07/29 06:47:02;;;;;;;0.03;0.00;;;16.90;99.90;;;;;;5049590;28;20070;-87
2021/07/29 06:49:49;;;;;;;0.00;0.00;;;16.90;99.90;;;;;;5052042;28;20130;-90
2021/07/29 06:52:36;;;;;;;0.00;0.00;;;17.00;99.90;;;;;;5055201;28;20126;-89
2021/07/29 06:55:23;;;;;;;0.00;0.00;;;17.00;99.90;;;;;;5053883;28;20106;-91
2021/07/29 06:58:11;;;;;;;0.00;0.00;;;17.10;99.90;;;;;;5069263;28;20124;-91
2021/07/29 07:01:01;;;;;;;0.00;0.00;;;17.20;99.90;;;;;;5056255;28;20261;-89
2021/07/29 07:03:48;;;;;;;0.00;0.00;;;17.50;99.90;;;;;;5056938;28;20040;-90
2021/07/29 07:06:35;;;;;;;0.00;0.00;;;17.60;99.90;;;;;;5070333;28;20259;-88
2021/07/29 07:09:22;;;;;;;0.00;0.00;;;17.60;99.90;;;;;;5057220;28;20052;-88
2021/07/29 07:12:10;;;;;;;0.00;0.00;;;17.80;99.90;;;;;;5055995;28;20304;-87
2021/07/29 07:14:58;;;;;;;0.00;0.00;;;17.80;99.90;;;;;;5064542;28;20497;-87
2021/07/29 07:17:45;;;;;;;0.00;0.00;;;18.10;99.90;;;;;;5066722;28;20044;-88
2021/07/29 07:20:32;;;;;;;0.00;0.00;;;18.20;99.90;;;;;;5053703;28;20049;-88
2021/07/29 07:23:19;;;;;;;0.00;0.00;;;18.30;99.90;;;;;;5053614;28;20047;-88
2021/07/29 07:26:14;;;;;;;0.00;0.00;;;18.30;99.90;;;;;;5057119;28;20470;-88
2021/07/29 07:29:01;;;;;;;0.00;0.00;;;18.20;99.90;;;;;;5050963;28;20666;-87
2021/07/29 07:31:50;;;;;;;0.00;0.00;;;18.20;99.90;;;;;;5055610;28;20048;-86
2021/07/29 07:34:37;;;;;;;0.00;0.00;;;18.20;99.90;;;;;;5053502;28;20143;-87
2021/07/29 07:37:24;;;;;;;0.00;0.00;;;18.20;99.90;;;;;;5054176;28;20397;-87
2021/07/29 07:40:12;;;;;;;0.00;0.00;;;18.20;99.90;;;;;;5055674;28;20174;-89
2021/07/29 07:42:59;;;;;;;0.00;0.00;;;18.20;99.90;;;;;;5050403;28;20040;-87
2021/07/29 07:45:48;;;;;;;0.00;0.00;;;18.20;99.90;;;;;;5054995;28;20142;-87
2021/07/29 07:48:37;;;;;;;0.00;0.00;;;18.20;99.90;;;;;;5045241;28;20154;-88
2021/07/29 07:51:26;;;;;;;0.00;0.00;;;18.20;99.90;;;;;;5051791;28;20536;-89
2021/07/29 07:54:13;;;;;;;0.00;0.00;;;18.30;99.90;;;;;;5045501;28;20123;-87
2021/07/29 07:57:00;;;;;;;0.00;0.00;;;18.40;99.90;;;;;;5052944;28;20049;-90
2021/07/29 07:59:50;;;;;;;0.00;0.00;;;18.70;99.90;;;;;;5051182;28;20049;-88
2021/07/29 08:02:37;;;;;;;0.00;0.00;;;18.90;99.90;;;;;;5052253;28;20115;-90
2021/07/29 08:05:27;;;;;;;0.00;0.00;;;19.00;99.90;;;;;;5051167;28;20075;-88
2021/07/29 08:08:14;;;;;;;0.00;0.00;;;19.10;99.90;;;;;;5055085;28;20149;-89
2021/07/29 08:11:03;;;;;;;0.00;0.00;;;19.20;99.90;;;;;;5055290;28;20044;-87
2021/07/29 08:13:50;;;;;;;0.00;0.00;;;19.10;99.90;;;;;;5053887;28;20566;-87
2021/07/29 08:16:37;;;;;;;0.00;0.00;;;19.00;99.90;;;;;;5047440;28;20295;-88
2021/07/29 08:19:25;;;;;;;0.00;0.00;;;18.90;99.90;;;;;;5055085;28;20051;-88
2021/07/29 08:22:17;;;;;;;0.00;0.00;;;19.00;99.90;;;;;;5051698;28;20048;-88
2021/07/29 08:25:04;;;;;;;0.00;0.00;;;19.20;99.90;;;;;;5058532;28;20125;-89
2021/07/29 08:27:53;;;;;;;0.00;0.00;;;19.20;99.90;;;;;;5060228;28;20442;-87
2021/07/29 08:30:40;;;;;;;0.00;0.00;;;19.50;99.90;;;;;;5059600;28;20123;-88
2021/07/29 08:33:27;;;;;;;0.00;0.00;;;19.50;99.90;;;;;;5060994;28;20040;-88
2021/07/29 08:36:16;;;;;;;0.00;0.00;;;19.40;99.90;;;;;;5056767;28;20048;-90
2021/07/29 08:39:04;;;;;;;0.00;0.00;;;19.40;99.90;;;;;;5060759;28;20135;-87
2021/07/29 08:41:52;;;;;;;0.00;0.00;;;19.60;99.90;;;;;;5059562;28;20049;-88
2021/07/29 08:44:39;;;;;;;0.00;0.00;;;19.80;99.90;;;;;;5058549;28;20044;-90
2021/07/29 08:47:32;;;;;;;0.00;0.00;;;20.00;99.90;;;;;;5056436;28;20104;-88
2021/07/29 08:50:21;;;;;;;0.00;0.00;;;20.20;99.90;;;;;;5058278;28;20051;-87
2021/07/29 08:53:08;;;;;;;0.00;0.00;;;20.40;99.90;;;;;;5056078;28;20420;-88
2021/07/29 08:55:57;;;;;;;0.00;0.00;;;20.60;99.90;;;;;;5059952;28;20144;-87
2021/07/29 08:58:45;;;;;;;0.00;0.00;;;20.80;98.50;;;;;;5060519;28;20537;-88
2021/07/29 09:01:43;;;;;;;0.00;0.00;;;20.70;99.50;;;;;;5059566;28;20123;-88
2021/07/29 09:04:30;;;;;;;0.00;0.00;;;20.70;99.00;;;;;;5039576;28;20071;-88
2021/07/29 09:07:17;;;;;;;0.00;0.00;;;20.80;99.90;;;;;;5039136;28;20132;-90
2021/07/29 09:10:19;;;;;;;0.00;0.00;;;21.00;99.20;;;;;;5040012;28;20051;-88
2021/07/29 09:13:09;;;;;;;0.00;0.00;;;21.10;98.00;;;;;;5039075;28;20717;-87
2021/07/29 09:16:10;;;;;;;0.00;0.00;;;20.70;99.70;;;;;;5056163;28;20155;-86
2021/07/29 09:18:57;;;;;;;0.00;0.00;;;20.90;97.90;;;;;;5052826;28;20036;-86
2021/07/29 09:22:08;;;;;;;0.00;0.00;;;21.00;97.50;;;;;;5059826;28;20044;-87
2021/07/29 09:25:02;;;;;;;0.00;0.00;;;20.90;97.90;;;;;;5053015;28;20167;-87
2021/07/29 09:27:51;;;;;;;0.00;0.00;;;20.70;98.10;;;;;;5047049;28;20130;-88
2021/07/29 09:30:39;;;;;;;0.00;0.00;;;20.60;97.30;;;;;;5050923;28;20171;-85
2021/07/29 09:33:26;;;;;;;0.00;0.00;;;20.40;97.40;;;;;;5073211;28;20049;-87
2021/07/29 09:36:13;;;;;;;0.00;0.00;;;20.20;97.30;;;;;;5056271;28;20045;-88
2021/07/29 09:39:18;;;;;;;0.00;0.00;;;20.00;98.50;;;;;;5059279;28;20422;-88
2021/07/29 09:42:17;;;;;;;0.00;0.00;;;20.30;99.90;;;;;;5054840;28;20045;-87
2021/07/29 09:45:07;;;;;;;0.00;0.00;;;20.60;99.30;;;;;;5057574;28;20166;-88
2021/07/29 09:47:57;;;;;;;0.00;0.00;;;20.90;99.50;;;;;;5059051;28;20097;-87
2021/07/29 09:50:44;;;;;;;;;;;21.00;98.20;;;;;;5055167;28;20125;-88
2021/07/29 09:53:33;;;;;;;0.00;0.00;;;21.00;97.10;;;;;;5057871;28;19990;-87
2021/07/29 09:56:20;;;;;;;0.00;0.00;;;20.90;97.70;;;;;;5057802;28;20047;-87
2021/07/29 09:59:27;;;;;;;0.00;0.00;;;20.70;96.00;;;;;;5061871;28;20048;-90
2021/07/29 10:02:14;;;;;;;0.00;0.00;;;20.80;98.60;;;;;;5050111;28;20203;-86
2021/07/29 10:05:05;;;;;;;0.00;0.00;;;20.70;97.40;;;;;;5056306;28;20044;-88
2021/07/29 10:07:55;;;;;;;0.00;0.00;;;20.60;96.40;;;;;;5053617;28;20063;-87
2021/07/29 10:10:43;;;;;;;0.00;0.00;;;20.70;97.60;;;;;;5046428;28;20045;-89
2021/07/29 10:13:34;;;;;;;0.00;0.00;;;20.90;97.80;;;;;;5040433;28;20183;-88
2021/07/29 10:16:49;;;;;;;0.00;0.00;;;20.80;97.10;;;;;;5059350;28;20534;-87
2021/07/29 10:20:19;;;;;;;0.00;0.00;;;20.80;96.60;;;;;;5062415;28;20060;-87
2021/07/29 10:23:50;;;;;;;0.00;0.00;;;20.40;95.90;;;;;;5055196;28;20040;-88
2021/07/29 10:27:07;;;;;;;0.00;0.00;;;20.20;98.40;;;;;;5046479;28;20045;-88
2021/07/29 10:30:33;;;;;;;0.00;0.00;;;20.40;97.30;;;;;;5048771;28;20205;-86
2021/07/29 10:33:23;;;;;;;0.00;0.00;;;20.80;96.80;;;;;;5061954;28;20055;-87
2021/07/29 10:36:43;;;;;;;0.00;0.00;;;21.90;97.30;;;;;;5050884;28;20139;-89
2021/07/29 10:39:31;;;;;;;0.00;0.00;;;21.00;96.50;;;;;;5058667;28;20045;-89
2021/07/29 10:42:24;;;;;;;0.00;0.00;;;21.00;97.00;;;;;;5052947;28;20076;-90
2021/07/29 10:45:12;;;;;;;0.00;0.00;;;21.00;96.30;;;;;;5051625;28;20040;-87
2021/07/29 10:47:59;;;;;;;0.00;0.00;;;21.10;96.80;;;;;;5046087;28;20417;-85
2021/07/29 10:51:10;;;;;;;0.00;0.00;;;21.30;95.10;;;;;;5052133;28;20048;-88
2021/07/29 10:53:59;;;;;;;0.00;0.00;;;21.40;95.80;;;;;;5074275;28;20068;-91
2021/07/29 10:56:46;;;;;;;0.00;0.00;;;21.70;96.70;;;;;;5058761;28;20127;-87
2021/07/29 10:59:34;;;;;;;0.00;0.00;;;22.00;96.60;;;;;;5046304;28;20174;-88
2021/07/29 11:02:34;;;;;;;0.00;0.00;;;21.70;93.20;;;;;;5054449;28;20040;-87
2021/07/29 11:05:27;;;;;;;0.00;0.00;;;21.30;93.30;;;;;;5044255;28;20039;-89
2021/07/29 11:08:25;;;;;;;0.00;0.00;;;21.20;95.40;;;;;;5049967;28;20045;-88
2021/07/29 11:11:13;;;;;;;0.00;0.00;;;21.30;94.90;;;;;;5053268;28;20645;-88
2021/07/29 11:14:01;;;;;;;0.10;0.00;;;21.10;93.90;;;;;;5052863;28;20486;-88
2021/07/29 11:16:50;;;;;;;0.00;0.00;;;21.20;95.40;;;;;;5053239;28;20125;-86
2021/07/29 11:19:49;;;;;;;0.00;0.00;;;21.50;93.80;;;;;;5054444;28;20055;-89
2021/07/29 11:22:44;;;;;;;0.00;0.00;;;21.50;95.60;;;;;;5050098;28;20048;-85
2021/07/29 11:25:33;;;;;;;0.00;0.00;;;21.70;94.30;;;;;;5050332;28;20379;-85
2021/07/29 11:28:22;;;;;;;0.00;0.00;;;21.80;94.30;;;;;;5067585;28;20127;-87
2021/07/29 11:31:23;;;;;;;0.00;0.00;;;22.00;93.50;;;;;;5059811;28;20045;-86
2021/07/29 11:34:10;;;;;;;0.00;0.00;;;22.40;94.90;;;;;;5055162;28;20044;-86
2021/07/29 11:36:58;;;;;;;0.00;0.00;;;22.50;95.20;;;;;;5056697;28;20694;-86
2021/07/29 11:39:45;;;;;;;0.00;0.00;;;22.70;94.50;;;;;;5057593;28;20521;-87
2021/07/29 11:42:37;;;;;;;0.00;0.00;;;22.40;93.40;;;;;;5057407;28;20086;-87
2021/07/29 11:45:27;;;;;;;0.00;0.00;;;22.10;94.30;;;;;;5056552;28;20044;-87
2021/07/29 11:48:22;;;;;;;0.00;0.00;;;21.80;93.50;;;;;;5054842;28;20174;-86
2021/07/29 11:51:12;;;;;;;0.00;0.00;;;21.90;95.20;;;;;;5057315;28;20048;-84
2021/07/29 11:54:00;;;;;;;0.00;0.00;;;22.00;94.30;;;;;;5056787;28;20114;-87
2021/07/29 11:56:48;;;;;;;0.00;0.00;;;22.10;95.90;;;;;;5050526;28;20051;-86
2021/07/29 11:59:37;;;;;;;0.00;0.00;;;22.10;95.70;;;;;;5054664;28;20127;-86
2021/07/29 12:02:25;;;;;;;0.00;0.00;;;22.10;95.40;;;;;;5059947;28;20119;-89
2021/07/29 12:05:12;;;;;;;0.00;0.00;;;22.20;96.30;;;;;;5054789;28;20084;-86
2021/07/29 12:08:00;;;;;;;0.00;0.00;;;22.10;94.10;;;;;;5057413;28;20820;-86
2021/07/29 12:10:52;;;;;;;0.00;0.00;;;22.10;94.30;;;;;;5059322;28;20067;-87
2021/07/29 12:13:39;;;;;;;0.00;0.00;;;22.10;94.10;;;;;;5048128;28;20116;-87
2021/07/29 12:16:44;;;;;;;0.00;0.00;;;21.90;94.20;;;;;;5057710;28;20045;-86
2021/07/29 12:19:52;;;;;;;0.00;0.00;;;22.10;93.90;;;;;;5053657;28;20053;-88
2021/07/29 12:22:42;;;;;;;0.00;0.00;;;22.10;93.40;;;;;;5056242;28;20049;-87
2021/07/29 12:25:31;;;;;;;0.00;0.00;;;22.10;93.60;;;;;;5060591;28;20129;-85
2021/07/29 12:28:39;;;;;;;0.00;0.00;;;22.00;93.90;;;;;;5049821;28;20097;-88
2021/07/29 12:31:28;;;;;;;0.00;0.00;;;21.80;93.00;;;;;;5055208;28;20494;-86
2021/07/29 12:34:15;;;;;;;0.00;0.00;;;21.50;94.20;;;;;;5057201;28;20049;-86
2021/07/29 12:37:04;;;;;;;0.00;0.00;;;21.60;94.60;;;;;;5056192;28;20048;-87
2021/07/29 12:39:55;;;;;;;0.00;0.00;;;21.50;94.70;;;;;;5057534;28;20045;-87
2021/07/29 12:42:42;;;;;;;0.00;0.00;;;21.60;94.70;;;;;;5055146;28;20037;-87
2021/07/29 12:45:52;;;;;;;0.00;0.00;;;21.50;94.30;;;;;;5056195;28;20110;-87
2021/07/29 12:48:56;;;;;;;0.00;0.00;;;21.50;94.10;;;;;;5058427;28;20040;-87
2021/07/29 12:51:45;;;;;;;0.00;0.00;;;21.40;94.60;;;;;;5055563;28;20139;-85
2021/07/29 12:54:58;;;;;;;0.00;0.00;;;21.50;95.70;;;;;;5045048;28;20195;-86
2021/07/29 12:57:49;;;;;;;0.00;0.00;;;21.60;94.20;;;;;;5059336;28;20127;-87
2021/07/29 13:00:37;;;;;;;0.00;0.00;;;21.60;94.10;;;;;;5048492;28;20247;-86
2021/07/29 13:03:34;;;;;;;0.00;0.00;;;21.70;95.90;;;;;;5058482;28;20051;-85
2021/07/29 13:06:23;;;;;;;0.00;0.00;;;21.90;93.20;;;;;;5053158;28;20041;-88
2021/07/29 13:09:10;;;;;;;0.00;0.00;;;21.80;92.80;;;;;;5053927;28;20121;-88
2021/07/29 13:11:59;;;;;;;0.00;0.00;;;21.90;93.30;;;;;;5052566;28;20144;-85
2021/07/29 13:14:46;;;;;;;0.00;0.00;;;22.10;93.70;;;;;;5051728;28;20450;-86
2021/07/29 13:17:33;;;;;;;0.00;0.00;;;22.10;92.00;;;;;;5065386;28;20179;-87
2021/07/29 13:20:20;;;;;;;0.00;0.00;;;22.10;94.00;;;;;;5055887;28;20102;-88
2021/07/29 13:23:07;;;;;;;0.00;0.00;;;22.30;92.20;;;;;;5059013;28;20557;-85
2021/07/29 13:25:55;;;;;;;0.00;0.00;;;22.40;92.00;;;;;;5050606;28;20141;-87
2021/07/29 13:28:43;;;;;;;0.00;0.00;;;22.50;91.10;;;;;;5053924;28;20051;-87
2021/07/29 13:31:30;;;;;;;0.00;0.00;;;22.70;90.00;;;;;;5055136;28;20044;-86
2021/07/29 13:34:18;;;;;;;0.00;0.00;;;22.70;89.40;;;;;;5056350;28;20494;-87
2021/07/29 13:37:05;;;;;;;0.00;0.00;;;22.60;90.00;;;;;;5045555;28;20493;-88
2021/07/29 13:39:52;;;;;;;0.00;0.00;;;22.80;88.40;;;;;;5056185;28;20413;-86
2021/07/29 13:42:39;;;;;;;0.00;0.00;;;22.90;88.50;;;;;;5058423;28;20126;-89
2021/07/29 13:45:28;;;;;;;0.00;0.00;;;23.00;86.80;;;;;;5053303;28;20132;-88
2021/07/29 13:48:15;;;;;;;0.00;0.00;;;23.00;90.10;;;;;;5055447;28;20040;-87
2021/07/29 13:51:02;;;;;;;0.00;0.00;;;22.90;87.00;;;;;;5052544;28;20183;-89
2021/07/29 13:53:49;;;;;;;0.00;0.00;;;23.00;88.30;;;;;;5055324;28;20413;-90
2021/07/29 13:56:36;;;;;;;0.00;0.00;;;22.80;90.70;;;;;;5070789;28;20048;-87
2021/07/29 13:59:23;;;;;;;0.00;0.00;;;22.60;90.80;;;;;;5053834;28;20132;-87
2021/07/29 14:02:12;;;;;;;0.00;0.00;;;22.20;90.70;;;;;;5056668;28;20050;-87
2021/07/29 14:04:59;;;;;;;0.00;0.00;;;22.10;91.20;;;;;;5052860;28;20055;-87
2021/07/29 14:07:47;;;;;;;0.00;0.00;;;22.10;89.40;;;;;;5058190;28;20045;-88
2021/07/29 14:10:34;;;;;;;0.00;0.00;;;22.00;91.50;;;;;;5051505;28;20037;-86
2021/07/29 14:13:21;;;;;;;0.00;0.00;;;22.10;91.00;;;;;;5057693;28;20128;-87
2021/07/29 14:16:08;;;;;;;0.00;0.00;;;21.90;90.70;;;;;;5057895;28;20045;-88
2021/07/29 14:19:02;;;;;;;0.00;0.00;;;21.90;91.80;;;;;;5049537;28;20041;-89
2021/07/29 14:24:45;;;;;;;0.00;0.00;;;21.80;91.60;;;;;;5070235;28;20508;-89
2021/07/29 14:27:32;;;;;;;0.00;0.00;;;22.20;90.70;;;;;;5054174;28;20101;-87
2021/07/29 14:30:20;;;;;;;0.00;0.00;;;22.40;88.50;;;;;;5058466;28;20059;-88
2021/07/29 14:33:08;;;;;;;0.00;0.00;;;22.70;90.50;;;;;;5058636;28;20323;-88
2021/07/29 14:36:02;;;;;;;0.00;0.00;;;22.40;89.70;;;;;;5060790;28;20417;-88
2021/07/29 14:38:49;;;;;;;0.00;0.00;;;22.10;90.50;;;;;;5050054;28;20050;-88
2021/07/29 14:41:36;;;;;;;0.00;0.00;;;22.00;91.00;;;;;;5058790;28;20062;-88
2021/07/29 14:44:23;;;;;;;0.00;0.00;;;21.90;89.30;;;;;;5059228;28;20047;-89
2021/07/29 14:50:16;;;;;;;0.00;0.00;;;21.50;91.90;;;;;;5058899;28;20049;-87
2021/07/29 14:53:06;;;;;;;0.00;0.00;;;21.50;90.70;;;;;;5061860;28;20517;-88